Time;durP1;ratioP1;P1;durP2;ratioP2;P2;SDS_P1;SDS_P2;PMS_P1;PMS_P2;Temp;Humidity;BMP_temperature;BMP_pressure;BME280_temperature;BME280_humidity;BME280_pressure;Samples;Min_cycle;Max_cycle;Signal;HPM_P1;HPM_P2
2023/12/08 00:00:53;;;;;;;759.28;700.67;;;2.60;99.90;;;;;;5047692;28;20037;-82
2023/12/08 00:03:18;;;;;;;777.88;717.80;;;1.30;99.90;;;;;;5064672;28;20040;-82
2023/12/08 00:05:44;;;;;;;760.05;698.45;;;2.30;99.90;;;;;;5044087;28;20040;-82
2023/12/08 00:08:09;;;;;;;748.67;692.42;;;1.40;99.90;;;;;;5063328;28;20061;-81
2023/12/08 00:10:35;;;;;;;758.35;700.55;;;1.30;99.90;;;;;;5044842;28;20040;-82
2023/12/08 00:13:01;;;;;;;763.30;705.08;;;1.30;99.90;;;;;;5047099;28;20083;-81
2023/12/08 00:15:26;;;;;;;790.28;728.10;;;1.30;99.90;;;;;;5051203;28;20071;-82
2023/12/08 00:17:52;;;;;;;817.97;750.38;;;2.30;99.90;;;;;;5064804;28;20052;-82
2023/12/08 00:20:18;;;;;;;768.50;710.13;;;1.30;99.90;;;;;;5050656;28;20044;-81
2023/12/08 00:22:43;;;;;;;771.05;711.67;;;1.30;99.90;;;;;;5049241;28;20051;-83
2023/12/08 00:25:09;;;;;;;787.80;726.75;;;1.30;99.90;;;;;;5053902;28;20396;-82
2023/12/08 00:27:35;;;;;;;751.92;694.65;;;1.40;99.90;;;;;;5086017;28;20044;-82
2023/12/08 00:30:01;;;;;;;755.05;697.45;;;2.30;99.90;;;;;;5072043;28;20037;-81
2023/12/08 00:32:26;;;;;;;754.00;696.60;;;1.40;99.90;;;;;;5051541;28;20048;-81
2023/12/08 00:34:53;;;;;;;764.88;705.55;;;2.80;99.90;;;;;;5050635;28;20033;-82
2023/12/08 00:37:20;;;;;;;758.13;700.15;;;1.30;99.90;;;;;;5054954;28;20040;-80
2023/12/08 00:39:46;;;;;;;777.58;716.65;;;1.30;99.90;;;;;;5067509;28;20128;-80
2023/12/08 00:42:12;;;;;;;797.78;733.20;;;1.30;99.90;;;;;;5065907;28;20077;-79
2023/12/08 00:44:38;;;;;;;745.70;688.15;;;1.30;99.90;;;;;;5050115;28;20060;-79
2023/12/08 00:47:04;;;;;;;744.97;687.13;;;2.80;99.90;;;;;;5049318;28;20041;-80
2023/12/08 00:49:30;;;;;;;779.47;718.35;;;2.90;99.90;;;;;;5047652;28;20462;-81
2023/12/08 00:51:56;;;;;;;771.28;710.45;;;1.30;99.90;;;;;;5070512;28;20179;-80
2023/12/08 00:54:22;;;;;;;685.83;635.55;;;1.30;99.90;;;;;;5051148;28;20409;-81
2023/12/08 00:56:48;;;;;;;776.83;716.55;;;1.30;99.90;;;;;;5052853;28;20037;-81
2023/12/08 00:59:13;;;;;;;769.90;708.47;;;1.30;99.90;;;;;;5072251;28;20037;-80
2023/12/08 01:01:39;;;;;;;759.42;699.63;;;1.30;99.90;;;;;;5054667;28;20037;-81
2023/12/08 01:04:05;;;;;;;753.38;695.90;;;1.30;99.90;;;;;;5067744;28;20037;-81
2023/12/08 01:06:33;;;;;;;770.03;711.75;;;1.30;99.90;;;;;;5082960;28;20044;-81
2023/12/08 01:08:59;;;;;;;770.47;710.92;;;1.30;99.90;;;;;;5027034;28;20083;-81
2023/12/08 01:11:24;;;;;;;763.10;703.22;;;2.30;99.90;;;;;;5090058;28;20036;-81
2023/12/08 01:13:50;;;;;;;768.40;708.10;;;1.30;99.90;;;;;;5068136;28;20040;-81
2023/12/08 01:16:16;;;;;;;756.17;697.92;;;1.30;99.90;;;;;;5068755;28;20036;-81
2023/12/08 01:18:42;;;;;;;766.53;706.20;;;2.40;99.90;;;;;;5082053;28;20075;-81
2023/12/08 01:21:07;;;;;;;785.05;723.33;;;1.20;99.90;;;;;;5045372;28;20049;-81
2023/12/08 01:23:33;;;;;;;773.30;711.40;;;1.30;99.90;;;;;;5049359;28;20040;-81
2023/12/08 01:25:58;;;;;;;747.50;688.70;;;1.30;99.90;;;;;;5049369;28;20037;-80
2023/12/08 01:28:24;;;;;;;756.80;697.47;;;1.30;99.90;;;;;;5068648;28;20049;-81
2023/12/08 01:30:50;;;;;;;787.40;725.38;;;1.30;99.90;;;;;;5049594;28;20037;-81
2023/12/08 01:33:15;;;;;;;776.40;715.67;;;1.30;99.90;;;;;;5051950;28;20135;-81
2023/12/08 01:35:41;;;;;;;796.20;733.25;;;1.30;99.90;;;;;;5052764;28;20497;-80
2023/12/08 01:38:08;;;;;;;773.95;714.42;;;1.30;99.90;;;;;;5064000;28;20065;-81
2023/12/08 01:40:33;;;;;;;772.60;715.33;;;1.30;99.90;;;;;;5040840;28;20039;-81
2023/12/08 01:42:59;;;;;;;763.28;705.67;;;1.30;99.90;;;;;;5067260;28;20029;-81
2023/12/08 01:45:25;;;;;;;805.70;740.72;;;2.60;99.90;;;;;;5085275;28;20033;-81
2023/12/08 01:47:50;;;;;;;769.38;710.42;;;1.30;99.90;;;;;;5064005;28;20493;-81
2023/12/08 01:50:18;;;;;;;758.40;701.53;;;1.30;99.90;;;;;;5050777;28;20040;-79
2023/12/08 01:52:44;;;;;;;733.03;677.97;;;1.30;99.90;;;;;;5056883;28;20028;-81
2023/12/08 01:55:10;;;;;;;801.15;737.13;;;1.30;99.90;;;;;;5061331;28;20090;-81
2023/12/08 01:57:36;;;;;;;769.88;710.55;;;1.30;99.90;;;;;;5068849;28;20092;-81
2023/12/08 02:00:02;;;;;;;764.03;704.70;;;2.60;99.90;;;;;;5066113;28;20056;-81
2023/12/08 02:02:28;;;;;;;750.17;694.65;;;1.30;99.90;;;;;;5050690;28;20041;-81
2023/12/08 02:04:57;;;;;;;789.72;728.38;;;1.30;99.90;;;;;;5051021;28;20039;-80
2023/12/08 02:07:24;;;;;;;777.95;718.05;;;1.40;99.90;;;;;;5050481;28;20041;-80
2023/12/08 02:09:50;;;;;;;752.55;693.28;;;1.30;99.90;;;;;;5066571;28;20044;-81
2023/12/08 02:12:16;;;;;;;766.17;706.90;;;1.40;99.90;;;;;;5068336;28;20037;-81
2023/12/08 02:14:50;;;;;;;791.20;728.22;;;1.00;99.90;;;;;;5081858;28;20115;-81
2023/12/08 02:17:30;;;;;;;772.95;713.45;;;2.80;99.90;;;;;;5048324;28;20662;-81
2023/12/08 02:19:56;;;;;;;786.65;726.50;;;1.30;99.90;;;;;;5048652;28;20041;-81
2023/12/08 02:22:26;;;;;;;794.35;730.30;;;1.30;99.90;;;;;;5051963;28;20053;-81
2023/12/08 02:24:51;;;;;;;793.00;731.75;;;1.40;99.90;;;;;;5052825;28;20036;-80
2023/12/08 02:27:17;;;;;;;769.50;709.30;;;1.40;99.90;;;;;;5068195;28;20093;-81
2023/12/08 02:29:43;;;;;;;771.03;710.60;;;1.40;99.90;;;;;;5051568;28;20043;-81
2023/12/08 02:32:21;;;;;;;764.42;706.40;;;1.40;99.90;;;;;;5065748;28;20146;-81
2023/12/08 02:34:48;;;;;;;791.83;731.47;;;1.40;99.90;;;;;;5066047;28;20040;-81
2023/12/08 02:37:16;;;;;;;768.42;709.85;;;1.40;99.90;;;;;;5057451;28;20045;-81
2023/12/08 02:39:43;;;;;;;773.80;714.92;;;1.40;99.90;;;;;;5050051;28;20040;-81
2023/12/08 02:42:10;;;;;;;813.42;751.20;;;1.40;99.90;;;;;;5051551;28;20033;-81
2023/12/08 02:44:36;;;;;;;789.30;729.53;;;1.50;99.90;;;;;;5049874;28;20100;-82
2023/12/08 02:47:02;;;;;;;841.00;773.65;;;1.40;99.90;;;;;;5061777;28;20065;-81
2023/12/08 02:49:27;;;;;;;815.10;752.58;;;1.40;99.90;;;;;;5052474;28;20093;-81
2023/12/08 02:51:53;;;;;;;810.03;747.90;;;2.10;99.90;;;;;;5065718;28;20115;-81
2023/12/08 02:54:18;;;;;;;774.53;713.22;;;2.70;99.90;;;;;;5033060;28;20064;-80
2023/12/08 02:56:44;;;;;;;794.03;732.97;;;1.40;99.90;;;;;;5051956;28;20043;-81
2023/12/08 02:59:09;;;;;;;790.70;729.22;;;1.40;99.90;;;;;;5049634;28;20041;-81
2023/12/08 03:01:35;;;;;;;792.10;730.70;;;1.40;99.90;;;;;;5053459;28;20037;-81
2023/12/08 03:04:01;;;;;;;793.28;732.72;;;1.40;99.90;;;;;;5048585;28;20413;-81
2023/12/08 03:06:27;;;;;;;805.03;743.08;;;1.40;99.90;;;;;;5081941;28;20158;-81
2023/12/08 03:08:53;;;;;;;779.85;719.53;;;1.70;99.90;;;;;;5064409;28;20469;-81
2023/12/08 03:11:18;;;;;;;779.47;720.83;;;1.30;99.90;;;;;;5048349;28;20056;-81
2023/12/08 03:13:44;;;;;;;796.58;735.47;;;1.50;99.90;;;;;;5064815;28;20484;-81
2023/12/08 03:16:10;;;;;;;777.55;717.85;;;2.20;99.90;;;;;;5048892;28;20040;-81
2023/12/08 03:18:35;;;;;;;811.63;749.30;;;1.50;99.90;;;;;;5047319;28;20420;-81
2023/12/08 03:21:01;;;;;;;811.53;748.63;;;1.40;99.90;;;;;;5068934;28;20097;-81
2023/12/08 03:23:26;;;;;;;812.10;749.55;;;1.40;99.90;;;;;;5047081;28;20040;-81
2023/12/08 03:25:52;;;;;;;833.38;766.35;;;1.40;99.90;;;;;;5047084;28;20055;-81
2023/12/08 03:28:18;;;;;;;780.45;721.45;;;1.40;99.90;;;;;;5047320;28;20040;-81
2023/12/08 03:30:43;;;;;;;800.45;739.13;;;1.40;99.90;;;;;;5045063;28;20039;-81
2023/12/08 03:33:09;;;;;;;818.40;754.63;;;1.40;99.90;;;;;;5048750;28;20037;-81
2023/12/08 03:35:34;;;;;;;828.38;763.53;;;1.40;99.90;;;;;;5051011;28;20049;-81
2023/12/08 03:38:00;;;;;;;829.95;766.03;;;1.40;99.90;;;;;;5068082;28;20037;-80
2023/12/08 03:40:26;;;;;;;813.78;749.88;;;1.40;99.90;;;;;;5055237;28;20068;-81
2023/12/08 03:42:51;;;;;;;813.28;749.70;;;1.50;99.90;;;;;;5064621;28;20126;-81
2023/12/08 03:45:17;;;;;;;814.13;750.63;;;1.50;99.90;;;;;;5064197;28;20041;-82
2023/12/08 03:47:43;;;;;;;803.35;741.50;;;1.50;99.90;;;;;;5051864;28;20029;-81
2023/12/08 03:50:10;;;;;;;809.40;747.33;;;1.50;99.90;;;;;;5048137;28;20404;-81
2023/12/08 03:52:35;;;;;;;842.00;773.97;;;1.50;99.90;;;;;;5047758;28;20032;-81
2023/12/08 03:55:01;;;;;;;834.58;769.17;;;1.40;99.90;;;;;;5067850;28;20074;-81
2023/12/08 03:57:27;;;;;;;838.25;770.85;;;2.30;99.90;;;;;;5055939;28;20040;-81
2023/12/08 03:59:53;;;;;;;787.42;726.05;;;2.90;99.90;;;;;;5068694;28;20085;-81
2023/12/08 04:02:18;;;;;;;823.47;758.80;;;1.50;99.90;;;;;;5056253;28;20155;-81
2023/12/08 04:04:44;;;;;;;859.92;788.17;;;1.50;99.90;;;;;;5072345;28;20119;-81
2023/12/08 04:07:09;;;;;;;851.03;781.42;;;1.60;99.90;;;;;;5072670;28;20042;-82
2023/12/08 04:09:35;;;;;;;818.40;754.15;;;0.70;99.90;;;;;;5068311;28;20044;-81
2023/12/08 04:12:01;;;;;;;838.83;771.85;;;1.50;99.90;;;;;;5068021;28;20045;-80
2023/12/08 04:14:27;;;;;;;822.03;757.75;;;1.50;99.90;;;;;;5068120;28;20028;-81
2023/12/08 04:16:52;;;;;;;807.92;744.40;;;1.50;99.90;;;;;;5058245;28;20040;-81
2023/12/08 04:19:21;;;;;;;802.22;739.70;;;1.50;99.90;;;;;;5054610;28;20049;-81
2023/12/08 04:21:46;;;;;;;751.00;695.80;;;2.60;99.90;;;;;;5057512;28;20525;-80
2023/12/08 04:24:12;;;;;;;782.70;722.67;;;2.30;99.90;;;;;;5068199;28;20037;-81
2023/12/08 04:26:43;;;;;;;768.72;706.00;;;2.70;99.90;;;;;;5050876;28;20033;-81
2023/12/08 04:29:08;;;;;;;765.60;706.40;;;1.30;99.90;;;;;;5066802;28;20064;-80
2023/12/08 04:31:34;;;;;;;742.05;682.50;;;1.30;99.90;;;;;;5055150;28;20033;-80
2023/12/08 04:34:00;;;;;;;780.88;722.72;;;1.20;99.90;;;;;;5053782;28;20037;-79
2023/12/08 04:36:25;;;;;;;754.28;697.33;;;1.80;99.90;;;;;;5053649;28;20040;-80
2023/12/08 04:38:51;;;;;;;761.90;704.20;;;0.90;99.90;;;;;;5052400;28;20047;-80
2023/12/08 04:41:16;;;;;;;812.45;748.78;;;1.20;99.90;;;;;;5050276;28;20407;-80
2023/12/08 04:43:42;;;;;;;749.30;690.83;;;1.20;99.90;;;;;;5050497;28;20028;-80
2023/12/08 04:46:08;;;;;;;745.55;687.75;;;1.20;99.90;;;;;;5054639;28;20045;-80
2023/12/08 04:48:33;;;;;;;745.25;687.20;;;1.20;99.90;;;;;;5053650;28;20049;-80
2023/12/08 04:50:59;;;;;;;842.55;775.90;;;1.10;99.90;;;;;;5049798;28;20040;-79
2023/12/08 04:53:25;;;;;;;863.83;796.13;;;1.20;99.90;;;;;;5048143;28;20501;-80
2023/12/08 04:55:50;;;;;;;836.90;769.90;;;1.10;99.90;;;;;;5045186;28;20037;-80
2023/12/08 04:58:16;;;;;;;865.83;795.15;;;1.10;99.90;;;;;;5061387;28;20120;-80
2023/12/08 05:00:42;;;;;;;748.97;692.80;;;1.10;99.90;;;;;;5047166;28;20036;-80
2023/12/08 05:03:07;;;;;;;822.03;759.83;;;1.10;99.90;;;;;;5046195;28;20128;-80
2023/12/08 05:05:33;;;;;;;851.15;782.58;;;2.00;99.90;;;;;;5046818;28;20075;-80
2023/12/08 05:07:58;;;;;;;841.80;772.28;;;1.10;99.90;;;;;;5046824;28;20039;-80
2023/12/08 05:10:24;;;;;;;868.30;797.90;;;1.00;99.90;;;;;;5048252;28;20102;-81
2023/12/08 05:12:49;;;;;;;878.60;807.63;;;1.00;99.90;;;;;;5046420;28;20029;-80
2023/12/08 05:15:15;;;;;;;830.10;766.20;;;1.00;99.90;;;;;;5062920;28;20053;-80
2023/12/08 05:17:41;;;;;;;873.03;803.58;;;1.00;99.90;;;;;;5064600;28;20079;-80
2023/12/08 05:20:07;;;;;;;888.90;816.63;;;1.00;99.90;;;;;;5045639;28;20037;-79
2023/12/08 05:22:32;;;;;;;869.33;799.65;;;1.00;99.90;;;;;;5046686;28;20612;-80
2023/12/08 05:24:58;;;;;;;873.25;802.20;;;1.00;99.90;;;;;;5063683;28;20114;-80
2023/12/08 05:27:24;;;;;;;800.22;735.60;;;1.00;99.90;;;;;;5060243;28;20087;-80
2023/12/08 05:29:49;;;;;;;860.70;791.40;;;1.00;99.90;;;;;;5043288;28;20040;-80
2023/12/08 05:32:15;;;;;;;919.05;843.45;;;1.30;99.90;;;;;;5063427;28;20051;-80
2023/12/08 05:34:40;;;;;;;903.90;829.35;;;1.00;99.90;;;;;;5044456;28;20447;-79
2023/12/08 05:37:06;;;;;;;914.38;837.95;;;1.00;99.90;;;;;;5061869;28;20047;-79
2023/12/08 05:39:32;;;;;;;900.67;826.90;;;0.90;99.90;;;;;;5066778;28;20120;-80
2023/12/08 05:41:57;;;;;;;871.13;800.10;;;1.00;99.90;;;;;;5046119;28;20056;-79
2023/12/08 05:44:23;;;;;;;885.63;813.55;;;1.00;99.90;;;;;;5051157;28;20036;-79
2023/12/08 05:46:49;;;;;;;917.15;841.75;;;1.00;99.90;;;;;;5054281;28;20033;-79
2023/12/08 05:49:17;;;;;;;907.30;833.00;;;1.00;99.90;;;;;;5068489;28;20040;-80
2023/12/08 05:51:43;;;;;;;876.55;805.75;;;1.00;99.90;;;;;;5055306;28;20393;-80
2023/12/08 05:54:09;;;;;;;843.80;775.97;;;1.00;99.90;;;;;;5047847;28;20036;-80
2023/12/08 05:56:34;;;;;;;892.63;820.15;;;1.00;99.90;;;;;;5052244;28;20039;-80
2023/12/08 05:59:00;;;;;;;807.15;744.13;;;1.00;99.90;;;;;;5075094;28;20043;-79
2023/12/08 06:01:26;;;;;;;925.42;845.72;;;1.00;99.90;;;;;;5064003;28;20037;-80
2023/12/08 06:03:52;;;;;;;908.67;832.45;;;0.90;99.90;;;;;;5048300;28;20127;-80
2023/12/08 06:06:17;;;;;;;902.47;829.78;;;1.90;99.90;;;;;;5050781;28;20578;-80
2023/12/08 06:08:44;;;;;;;860.13;789.92;;;2.00;99.90;;;;;;5066964;28;20033;-80
2023/12/08 06:11:10;;;;;;;1173.50;825.22;;;1.00;99.90;;;;;;5069626;28;20043;-81
2023/12/08 06:13:36;;;;;;;909.10;833.80;;;1.00;99.90;;;;;;5046220;28;20056;-81
2023/12/08 06:16:03;;;;;;;867.20;796.95;;;1.00;99.90;;;;;;5051522;28;20037;-80
2023/12/08 06:18:29;;;;;;;877.70;807.75;;;0.90;99.90;;;;;;5054338;28;20044;-80
2023/12/08 06:20:55;;;;;;;925.85;847.63;;;1.00;99.90;;;;;;5066666;28;20062;-81
2023/12/08 06:23:20;;;;;;;890.85;815.53;;;1.00;99.90;;;;;;5047675;28;20032;-80
2023/12/08 06:25:46;;;;;;;940.03;858.80;;;1.00;99.90;;;;;;5042990;28;20124;-81
2023/12/08 06:28:12;;;;;;;923.20;848.20;;;1.00;99.90;;;;;;5047672;28;20029;-80
2023/12/08 06:30:38;;;;;;;842.67;774.83;;;1.00;99.90;;;;;;5058745;28;20033;-80
2023/12/08 06:33:04;;;;;;;899.60;825.95;;;1.00;99.90;;;;;;5059882;28;20040;-79
2023/12/08 06:35:29;;;;;;;885.20;812.88;;;2.50;99.90;;;;;;5065596;28;20505;-80
2023/12/08 06:37:55;;;;;;;906.08;832.45;;;1.00;99.90;;;;;;5048338;28;20029;-79
2023/12/08 06:40:21;;;;;;;931.72;853.60;;;1.00;99.90;;;;;;5056280;28;20096;-80
2023/12/08 06:42:46;;;;;;;928.80;849.60;;;1.00;99.90;;;;;;5053040;28;20071;-80
2023/12/08 06:45:13;;;;;;;948.58;869.60;;;1.00;99.90;;;;;;5049301;28;20390;-81
2023/12/08 06:47:39;;;;;;;954.67;874.83;;;0.90;99.90;;;;;;5048311;28;20040;-80
2023/12/08 06:50:05;;;;;;;929.65;852.45;;;1.00;99.90;;;;;;5045760;28;20045;-80
2023/12/08 06:52:32;;;;;;;917.35;842.20;;;0.90;99.90;;;;;;5066351;28;20049;-81
2023/12/08 06:54:57;;;;;;;928.58;852.13;;;1.20;99.90;;;;;;5051744;28;20033;-81
2023/12/08 06:57:23;;;;;;;941.00;861.60;;;1.00;99.90;;;;;;5048159;28;20033;-81
2023/12/08 06:59:49;;;;;;;940.65;859.75;;;1.00;99.90;;;;;;5046345;28;20060;-81
2023/12/08 07:02:15;;;;;;;877.55;805.80;;;1.00;99.90;;;;;;5053461;28;20036;-81
2023/12/08 07:04:40;;;;;;;848.13;779.75;;;1.00;99.90;;;;;;5048327;28;20107;-81
2023/12/08 07:07:06;;;;;;;798.70;736.28;;;1.00;99.90;;;;;;5072134;28;20133;-81
2023/12/08 07:09:32;;;;;;;917.78;842.63;;;1.00;99.90;;;;;;5050717;28;20504;-81
2023/12/08 07:11:57;;;;;;;913.42;837.22;;;1.00;99.90;;;;;;5062538;28;20044;-81
2023/12/08 07:14:23;;;;;;;931.60;854.28;;;1.00;99.90;;;;;;5082916;28;20075;-81
2023/12/08 07:16:49;;;;;;;852.45;781.90;;;0.90;99.90;;;;;;5047147;28;20057;-81
2023/12/08 07:19:15;;;;;;;886.22;813.25;;;1.00;99.90;;;;;;5066749;28;20044;-81
2023/12/08 07:21:44;;;;;;;854.85;785.40;;;2.20;99.90;;;;;;5087913;28;20039;-81
2023/12/08 07:24:11;;;;;;;920.70;844.08;;;1.30;99.90;;;;;;5049932;28;20064;-81
2023/12/08 07:26:36;;;;;;;885.65;812.92;;;2.30;99.90;;;;;;5068752;28;20052;-81
2023/12/08 07:29:03;;;;;;;887.22;813.75;;;1.00;99.90;;;;;;5050735;28;20036;-81
2023/12/08 07:31:28;;;;;;;940.45;861.05;;;1.10;99.90;;;;;;5051172;28;20041;-81
2023/12/08 07:33:55;;;;;;;908.55;831.53;;;1.00;99.90;;;;;;5065337;28;20571;-81
2023/12/08 07:36:21;;;;;;;859.97;790.55;;;2.20;99.90;;;;;;5036302;28;20029;-82
2023/12/08 07:38:47;;;;;;;885.03;812.58;;;1.00;99.90;;;;;;5050851;28;20123;-83
2023/12/08 07:41:12;;;;;;;860.55;792.22;;;1.00;99.90;;;;;;5059519;28;20039;-85
2023/12/08 07:43:38;;;;;;;910.45;835.90;;;1.00;99.90;;;;;;5056624;28;20032;-87
2023/12/08 07:46:03;;;;;;;922.47;846.78;;;0.90;99.90;;;;;;5056700;28;20044;-84
2023/12/08 07:48:29;;;;;;;941.22;862.38;;;1.00;99.90;;;;;;5072583;28;20044;-84
2023/12/08 07:50:55;;;;;;;963.17;880.20;;;1.00;99.90;;;;;;5052710;28;20095;-84
2023/12/08 07:53:21;;;;;;;985.83;903.42;;;2.00;99.90;;;;;;5040303;28;20497;-85
2023/12/08 07:55:48;;;;;;;945.05;866.38;;;0.90;99.90;;;;;;5060047;28;20122;-84
2023/12/08 07:58:14;;;;;;;974.20;889.00;;;2.00;99.90;;;;;;5058707;28;20045;-84
2023/12/08 08:00:39;;;;;;;934.92;858.22;;;0.30;99.90;;;;;;5054233;28;20037;-84
2023/12/08 08:03:05;;;;;;;948.58;867.47;;;1.80;99.90;;;;;;5061793;28;20168;-84
2023/12/08 08:05:31;;;;;;;958.08;876.92;;;0.70;99.90;;;;;;5076124;28;20037;-84
2023/12/08 08:07:57;;;;;;;923.30;847.85;;;2.40;99.90;;;;;;5056305;28;20095;-85
2023/12/08 08:10:22;;;;;;;907.90;833.10;;;2.00;99.90;;;;;;5044778;28;20061;-85
2023/12/08 08:12:48;;;;;;;937.30;859.50;;;2.30;99.90;;;;;;5093201;28;20090;-87
2023/12/08 08:15:14;;;;;;;948.35;868.63;;;2.20;99.90;;;;;;5039753;28;20524;-87
2023/12/08 08:17:40;;;;;;;935.28;856.75;;;2.10;99.90;;;;;;5058188;28;20052;-87
2023/12/08 08:20:07;;;;;;;935.55;857.95;;;1.30;99.90;;;;;;5057007;28;20037;-86
2023/12/08 08:22:33;;;;;;;907.80;833.67;;;0.60;99.90;;;;;;5051404;28;20520;-84
2023/12/08 08:25:04;;;;;;;933.42;854.75;;;2.50;99.90;;;;;;5048366;28;20094;-84
2023/12/08 08:27:29;;;;;;;915.45;839.95;;;1.20;99.90;;;;;;5046714;28;20116;-84
2023/12/08 08:29:55;;;;;;;894.17;820.58;;;2.30;99.90;;;;;;5050236;28;20693;-84
2023/12/08 08:32:21;;;;;;;928.08;851.78;;;1.10;99.90;;;;;;5054669;28;20036;-84
2023/12/08 08:34:47;;;;;;;878.28;807.25;;;1.10;99.90;;;;;;5058194;28;20032;-84
2023/12/08 08:37:13;;;;;;;895.00;822.03;;;1.70;99.90;;;;;;5055360;28;20088;-84
2023/12/08 08:39:38;;;;;;;910.17;837.22;;;2.10;99.90;;;;;;5057285;28;20032;-84
2023/12/08 08:42:04;;;;;;;862.38;791.92;;;2.00;99.90;;;;;;5057715;28;20099;-84
2023/12/08 08:44:30;;;;;;;875.10;804.00;;;1.30;99.90;;;;;;5054744;28;20029;-84
2023/12/08 08:46:56;;;;;;;909.53;835.85;;;0.80;99.90;;;;;;5057791;28;20036;-85
2023/12/08 08:49:23;;;;;;;883.95;812.95;;;1.90;99.90;;;;;;5060589;28;20037;-87
2023/12/08 08:51:49;;;;;;;867.63;797.38;;;1.20;99.90;;;;;;5061961;28;20044;-84
2023/12/08 08:54:15;;;;;;;909.17;835.30;;;2.60;99.90;;;;;;5058759;28;20037;-85
2023/12/08 08:56:42;;;;;;;910.00;836.50;;;1.70;99.90;;;;;;5062350;28;20329;-85
2023/12/08 08:59:07;;;;;;;906.45;832.63;;;2.10;99.90;;;;;;5078944;28;20052;-85
2023/12/08 09:01:35;;;;;;;874.28;805.13;;;2.20;99.90;;;;;;5071972;28;20044;-85
2023/12/08 09:04:00;;;;;;;901.88;829.25;;;1.30;99.90;;;;;;5059211;28;20055;-85
2023/12/08 09:06:26;;;;;;;877.13;804.28;;;1.20;99.90;;;;;;5053943;28;20104;-85
2023/12/08 09:08:52;;;;;;;900.55;827.70;;;2.80;99.90;;;;;;5059411;28;20067;-84
2023/12/08 09:11:17;;;;;;;928.20;851.28;;;2.80;99.90;;;;;;5057302;28;20040;-85
2023/12/08 09:13:43;;;;;;;855.75;787.72;;;2.70;99.90;;;;;;5078416;28;20050;-85
2023/12/08 09:16:10;;;;;;;900.45;826.70;;;1.50;99.90;;;;;;5074611;28;20029;-85
2023/12/08 09:18:36;;;;;;;912.22;838.47;;;1.40;99.90;;;;;;5071283;28;20108;-85
2023/12/08 09:21:05;;;;;;;902.92;829.58;;;2.70;99.90;;;;;;5062005;28;20072;-86
2023/12/08 09:23:31;;;;;;;903.40;830.95;;;2.30;99.90;;;;;;5066852;28;20298;-86
2023/12/08 09:25:59;;;;;;;878.33;803.35;;;1.70;99.90;;;;;;5057344;28;20033;-86
2023/12/08 09:28:25;;;;;;;909.90;834.33;;;1.40;99.90;;;;;;5062820;28;20056;-87
2023/12/08 09:30:53;;;;;;;875.28;803.08;;;1.60;99.90;;;;;;5059509;28;20029;-87
2023/12/08 09:33:19;;;;;;;934.25;853.67;;;1.90;99.90;;;;;;5054933;28;20067;-87
2023/12/08 09:35:46;;;;;;;918.75;839.75;;;1.80;99.90;;;;;;5059060;28;20039;-87
2023/12/08 09:38:14;;;;;;;850.13;781.63;;;1.70;99.90;;;;;;5055542;28;20044;-86
2023/12/08 09:40:43;;;;;;;874.22;803.00;;;1.70;99.90;;;;;;5075159;28;20493;-86
2023/12/08 09:43:22;;;;;;;868.55;797.08;;;2.30;99.90;;;;;;5063160;28;20105;-86
2023/12/08 09:45:52;;;;;;;876.53;805.42;;;0.60;99.90;;;;;;5077233;28;20037;-86
2023/12/08 09:48:20;;;;;;;897.05;824.17;;;2.00;99.90;;;;;;5059105;28;20044;-86
2023/12/08 09:50:48;;;;;;;855.03;784.85;;;1.90;99.90;;;;;;5058803;28;20021;-87
2023/12/08 09:53:31;;;;;;;870.25;799.97;;;1.60;99.90;;;;;;5062784;28;20108;-86
2023/12/08 09:55:58;;;;;;;830.53;764.55;;;0.80;99.90;;;;;;5053094;28;20037;-86
2023/12/08 09:58:26;;;;;;;882.17;811.83;;;2.00;99.90;;;;;;5058094;28;20425;-86
2023/12/08 10:00:52;;;;;;;878.35;807.67;;;1.40;99.90;;;;;;5061836;28;20037;-85
2023/12/08 10:03:19;;;;;;;889.05;814.25;;;1.30;99.90;;;;;;5062464;28;20041;-86
2023/12/08 10:05:45;;;;;;;903.08;826.08;;;1.60;99.90;;;;;;5061635;28;20401;-86
2023/12/08 10:08:12;;;;;;;882.67;811.80;;;1.40;99.90;;;;;;5058750;28;20045;-85
2023/12/08 10:10:38;;;;;;;904.58;832.13;;;2.60;99.90;;;;;;5064365;28;20036;-85
2023/12/08 10:13:04;;;;;;;893.63;818.00;;;2.90;99.90;;;;;;5058100;28;20069;-85
2023/12/08 10:15:31;;;;;;;890.58;818.05;;;2.90;99.90;;;;;;5065768;28;20489;-85
2023/12/08 10:17:57;;;;;;;899.72;822.08;;;2.30;99.90;;;;;;5058117;28;20109;-85
2023/12/08 10:20:23;;;;;;;870.75;800.78;;;1.60;99.90;;;;;;5066692;28;20040;-85
2023/12/08 10:22:50;;;;;;;876.22;804.67;;;2.00;99.90;;;;;;5062164;28;20032;-85
2023/12/08 10:25:18;;;;;;;877.40;805.22;;;2.80;99.90;;;;;;5063694;28;20044;-85
2023/12/08 10:27:53;;;;;;;847.50;779.60;;;1.70;99.90;;;;;;5077158;28;20122;-85
2023/12/08 10:30:20;;;;;;;851.63;783.55;;;2.70;99.90;;;;;;5061336;28;20036;-85
2023/12/08 10:32:47;;;;;;;866.50;796.72;;;1.10;99.90;;;;;;5057401;28;20029;-85
2023/12/08 10:35:13;;;;;;;877.97;803.25;;;1.70;99.90;;;;;;5053323;28;20036;-85
2023/12/08 10:37:41;;;;;;;843.47;771.60;;;2.70;99.90;;;;;;5043372;28;20370;-85
2023/12/08 10:40:14;;;;;;;867.63;797.65;;;2.50;99.90;;;;;;5058136;28;20033;-85
2023/12/08 10:42:43;;;;;;;866.53;795.40;;;2.90;99.90;;;;;;5044343;28;20029;-85
2023/12/08 10:45:13;;;;;;;847.33;780.22;;;1.70;99.90;;;;;;5044125;28;20559;-85
2023/12/08 10:47:43;;;;;;;848.70;779.40;;;1.70;99.90;;;;;;5044826;28;20043;-84
2023/12/08 10:50:10;;;;;;;870.05;795.13;;;1.70;99.90;;;;;;5042358;28;20044;-85
2023/12/08 10:52:40;;;;;;;890.47;815.75;;;2.00;99.90;;;;;;5044285;28;20038;-84
2023/12/08 10:55:07;;;;;;;893.15;818.75;;;1.70;99.90;;;;;;5058774;28;20106;-85
2023/12/08 10:57:36;;;;;;;902.58;827.70;;;1.70;99.90;;;;;;5044312;28;20048;-85
2023/12/08 11:00:18;;;;;;;907.33;830.35;;;1.70;99.90;;;;;;5041438;28;20033;-86
2023/12/08 11:02:49;;;;;;;890.92;814.33;;;1.70;99.90;;;;;;5042728;28;20386;-85
2023/12/08 11:05:48;;;;;;;891.95;818.45;;;1.80;99.90;;;;;;5042410;28;20048;-85
2023/12/08 11:08:17;;;;;;;865.78;796.08;;;1.80;99.90;;;;;;5040265;28;20033;-86
2023/12/08 11:10:52;;;;;;;876.28;802.40;;;1.80;99.90;;;;;;5042526;28;20037;-86
2023/12/08 11:13:34;;;;;;;871.13;800.42;;;1.90;99.90;;;;;;5043753;28;20055;-86
2023/12/08 11:16:16;;;;;;;880.08;806.65;;;1.80;99.90;;;;;;5041001;28;20435;-85
2023/12/08 11:18:43;;;;;;;888.05;810.80;;;1.80;99.90;;;;;;5055680;28;20120;-85
2023/12/08 11:21:10;;;;;;;888.70;813.50;;;1.80;99.90;;;;;;5042904;28;20052;-84
2023/12/08 11:23:38;;;;;;;858.17;784.05;;;1.90;99.90;;;;;;5040554;28;20033;-84
2023/12/08 11:26:35;;;;;;;880.67;803.22;;;1.90;99.90;;;;;;5060989;28;20028;-84
2023/12/08 11:29:42;;;;;;;860.53;786.47;;;1.90;99.90;;;;;;5060852;28;20040;-85
2023/12/08 11:32:28;;;;;;;898.10;820.08;;;1.90;99.90;;;;;;4986628;28;20044;-85
2023/12/08 11:34:59;;;;;;;902.47;820.10;;;1.90;99.90;;;;;;4994971;28;20049;-85
2023/12/08 11:37:29;;;;;;;882.58;808.00;;;1.90;99.90;;;;;;5022155;28;20086;-85
2023/12/08 11:40:06;;;;;;;906.25;828.45;;;2.00;99.90;;;;;;5042506;28;20119;-85
2023/12/08 11:42:33;;;;;;;893.17;815.13;;;2.80;99.90;;;;;;5040755;28;20028;-85
2023/12/08 11:44:58;;;;;;;894.70;818.03;;;2.00;99.90;;;;;;5042837;28;20036;-85
2023/12/08 11:47:25;;;;;;;896.03;819.40;;;2.00;99.90;;;;;;5041906;28;20602;-85
2023/12/08 11:49:53;;;;;;;917.92;834.15;;;2.10;99.90;;;;;;5041582;28;20076;-85
2023/12/08 11:52:33;;;;;;;897.85;818.15;;;2.10;99.90;;;;;;5043087;28;20097;-86
2023/12/08 11:55:12;;;;;;;900.83;821.00;;;2.10;99.90;;;;;;5059963;28;20033;-85
2023/12/08 11:57:50;;;;;;;887.42;807.80;;;2.00;99.90;;;;;;5049128;28;20039;-85
2023/12/08 12:00:20;;;;;;;894.58;815.42;;;2.00;99.90;;;;;;5038310;28;20048;-85
2023/12/08 12:02:50;;;;;;;878.45;802.47;;;2.00;99.90;;;;;;5060826;28;20518;-85
2023/12/08 12:05:16;;;;;;;886.25;809.45;;;2.00;99.90;;;;;;5059156;28;20036;-85
2023/12/08 12:07:45;;;;;;;860.58;789.67;;;2.00;99.90;;;;;;5043744;28;20067;-85
2023/12/08 12:10:11;;;;;;;877.35;800.47;;;2.10;99.90;;;;;;5070285;28;20133;-85
2023/12/08 12:12:42;;;;;;;874.83;797.47;;;2.10;99.90;;;;;;5060035;28;20052;-85
2023/12/08 12:15:10;;;;;;;884.60;804.92;;;2.10;99.90;;;;;;5039870;28;20133;-85
2023/12/08 12:17:37;;;;;;;902.50;821.38;;;2.10;99.90;;;;;;5042824;28;20052;-85